sensor_id;sensor_type;location;lat;lon;timestamp;P1;durP1;ratioP1;P2;durP2;ratioP2
15490;SDS011;7847;50.930;4.336;2022-09-09T00:02:01;0.20;;;0.20;;
15490;SDS011;7847;50.930;4.336;2022-09-09T00:04:28;0.20;;;0.20;;
15490;SDS011;7847;50.930;4.336;2022-09-09T00:07:15;0.20;;;0.20;;
15490;SDS011;7847;50.930;4.336;2022-09-09T00:12:11;0.20;;;0.20;;
15490;SDS011;7847;50.930;4.336;2022-09-09T00:14:47;0.20;;;0.20;;
15490;SDS011;7847;50.930;4.336;2022-09-09T00:19:55;0.20;;;0.20;;
15490;SDS011;7847;50.930;4.336;2022-09-09T00:22:23;0.20;;;0.20;;
15490;SDS011;7847;50.930;4.336;2022-09-09T00:24:52;0.20;;;0.20;;
15490;SDS011;7847;50.930;4.336;2022-09-09T00:27:36;0.20;;;0.20;;
15490;SDS011;7847;50.930;4.336;2022-09-09T00:30:18;0.20;;;0.20;;
15490;SDS011;7847;50.930;4.336;2022-09-09T00:32:47;0.20;;;0.20;;
15490;SDS011;7847;50.930;4.336;2022-09-09T00:35:16;0.20;;;0.20;;
15490;SDS011;7847;50.930;4.336;2022-09-09T00:37:43;0.20;;;0.20;;
15490;SDS011;7847;50.930;4.336;2022-09-09T00:40:18;0.30;;;0.30;;
15490;SDS011;7847;50.930;4.336;2022-09-09T00:42:47;0.20;;;0.20;;
15490;SDS011;7847;50.930;4.336;2022-09-09T00:47:49;0.20;;;0.20;;
15490;SDS011;7847;50.930;4.336;2022-09-09T00:50:17;0.20;;;0.20;;
15490;SDS011;7847;50.930;4.336;2022-09-09T00:57:53;0.10;;;0.10;;
15490;SDS011;7847;50.930;4.336;2022-09-09T01:00:25;0.10;;;0.10;;
15490;SDS011;7847;50.930;4.336;2022-09-09T01:06:25;0.20;;;0.20;;
15490;SDS011;7847;50.930;4.336;2022-09-09T01:11:05;0.20;;;0.20;;
15490;SDS011;7847;50.930;4.336;2022-09-09T01:13:35;0.13;;;0.13;;
15490;SDS011;7847;50.930;4.336;2022-09-09T01:16:04;0.20;;;0.20;;
15490;SDS011;7847;50.930;4.336;2022-09-09T01:18:35;0.20;;;0.20;;
15490;SDS011;7847;50.930;4.336;2022-09-09T01:21:13;0.20;;;0.20;;
15490;SDS011;7847;50.930;4.336;2022-09-09T01:23:55;0.20;;;0.20;;
15490;SDS011;7847;50.930;4.336;2022-09-09T01:26:30;0.20;;;0.20;;
15490;SDS011;7847;50.930;4.336;2022-09-09T01:28:58;0.20;;;0.20;;
15490;SDS011;7847;50.930;4.336;2022-09-09T01:34:27;0.20;;;0.20;;
15490;SDS011;7847;50.930;4.336;2022-09-09T01:36:58;0.20;;;0.20;;
15490;SDS011;7847;50.930;4.336;2022-09-09T01:39:24;0.20;;;0.20;;
15490;SDS011;7847;50.930;4.336;2022-09-09T01:41:51;0.10;;;0.10;;
15490;SDS011;7847;50.930;4.336;2022-09-09T01:44:18;0.20;;;0.20;;
15490;SDS011;7847;50.930;4.336;2022-09-09T01:46:44;0.20;;;0.20;;
15490;SDS011;7847;50.930;4.336;2022-09-09T01:49:10;0.20;;;0.20;;
15490;SDS011;7847;50.930;4.336;2022-09-09T01:51:37;0.20;;;0.20;;
15490;SDS011;7847;50.930;4.336;2022-09-09T01:54:04;0.20;;;0.20;;
15490;SDS011;7847;50.930;4.336;2022-09-09T01:59:27;0.20;;;0.20;;
15490;SDS011;7847;50.930;4.336;2022-09-09T02:01:59;0.20;;;0.20;;
15490;SDS011;7847;50.930;4.336;2022-09-09T02:07:13;0.20;;;0.20;;
15490;SDS011;7847;50.930;4.336;2022-09-09T02:09:40;0.20;;;0.20;;
15490;SDS011;7847;50.930;4.336;2022-09-09T02:12:10;0.20;;;0.20;;
15490;SDS011;7847;50.930;4.336;2022-09-09T02:14:42;0.20;;;0.20;;
15490;SDS011;7847;50.930;4.336;2022-09-09T02:17:09;0.20;;;0.20;;
15490;SDS011;7847;50.930;4.336;2022-09-09T02:19:42;0.20;;;0.20;;
15490;SDS011;7847;50.930;4.336;2022-09-09T02:22:11;0.20;;;0.20;;
15490;SDS011;7847;50.930;4.336;2022-09-09T02:24:37;0.20;;;0.20;;
15490;SDS011;7847;50.930;4.336;2022-09-09T02:27:05;0.20;;;0.20;;
15490;SDS011;7847;50.930;4.336;2022-09-09T02:29:34;0.20;;;0.20;;
15490;SDS011;7847;50.930;4.336;2022-09-09T02:32:01;0.20;;;0.20;;
15490;SDS011;7847;50.930;4.336;2022-09-09T02:34:31;0.20;;;0.20;;
15490;SDS011;7847;50.930;4.336;2022-09-09T02:36:57;0.20;;;0.20;;
15490;SDS011;7847;50.930;4.336;2022-09-09T02:39:25;0.20;;;0.20;;
15490;SDS011;7847;50.930;4.336;2022-09-09T02:41:51;0.20;;;0.20;;
15490;SDS011;7847;50.930;4.336;2022-09-09T02:44:17;0.20;;;0.20;;
15490;SDS011;7847;50.930;4.336;2022-09-09T02:52:01;0.20;;;0.20;;
15490;SDS011;7847;50.930;4.336;2022-09-09T02:54:28;0.20;;;0.20;;
15490;SDS011;7847;50.930;4.336;2022-09-09T02:56:55;0.20;;;0.20;;
15490;SDS011;7847;50.930;4.336;2022-09-09T02:59:24;0.20;;;0.20;;
15490;SDS011;7847;50.930;4.336;2022-09-09T03:01:50;0.20;;;0.20;;
15490;SDS011;7847;50.930;4.336;2022-09-09T03:04:18;0.20;;;0.20;;
15490;SDS011;7847;50.930;4.336;2022-09-09T03:06:45;0.20;;;0.20;;
15490;SDS011;7847;50.930;4.336;2022-09-09T03:09:11;0.20;;;0.20;;
15490;SDS011;7847;50.930;4.336;2022-09-09T03:11:37;0.20;;;0.20;;
15490;SDS011;7847;50.930;4.336;2022-09-09T03:14:03;0.20;;;0.20;;
15490;SDS011;7847;50.930;4.336;2022-09-09T03:16:30;0.20;;;0.20;;
15490;SDS011;7847;50.930;4.336;2022-09-09T03:18:58;0.20;;;0.20;;
15490;SDS011;7847;50.930;4.336;2022-09-09T03:21:24;0.20;;;0.20;;
15490;SDS011;7847;50.930;4.336;2022-09-09T03:23:50;0.20;;;0.20;;
15490;SDS011;7847;50.930;4.336;2022-09-09T03:26:16;0.20;;;0.20;;
15490;SDS011;7847;50.930;4.336;2022-09-09T03:28:42;0.20;;;0.20;;
15490;SDS011;7847;50.930;4.336;2022-09-09T03:31:09;0.20;;;0.20;;
15490;SDS011;7847;50.930;4.336;2022-09-09T03:33:36;0.20;;;0.20;;
15490;SDS011;7847;50.930;4.336;2022-09-09T03:36:02;0.20;;;0.20;;
15490;SDS011;7847;50.930;4.336;2022-09-09T03:38:29;0.20;;;0.20;;
15490;SDS011;7847;50.930;4.336;2022-09-09T03:40:55;0.20;;;0.20;;
15490;SDS011;7847;50.930;4.336;2022-09-09T03:43:22;0.20;;;0.20;;
15490;SDS011;7847;50.930;4.336;2022-09-09T03:45:49;0.20;;;0.20;;
15490;SDS011;7847;50.930;4.336;2022-09-09T03:48:15;0.20;;;0.20;;
15490;SDS011;7847;50.930;4.336;2022-09-09T03:50:48;0.20;;;0.20;;
15490;SDS011;7847;50.930;4.336;2022-09-09T03:53:15;0.20;;;0.20;;
15490;SDS011;7847;50.930;4.336;2022-09-09T03:55:45;0.20;;;0.20;;
15490;SDS011;7847;50.930;4.336;2022-09-09T03:58:14;0.20;;;0.20;;
15490;SDS011;7847;50.930;4.336;2022-09-09T04:00:41;0.20;;;0.20;;
15490;SDS011;7847;50.930;4.336;2022-09-09T04:03:09;0.20;;;0.20;;
15490;SDS011;7847;50.930;4.336;2022-09-09T04:05:35;0.20;;;0.20;;
15490;SDS011;7847;50.930;4.336;2022-09-09T04:08:07;0.20;;;0.20;;
15490;SDS011;7847;50.930;4.336;2022-09-09T04:10:33;0.20;;;0.20;;
15490;SDS011;7847;50.930;4.336;2022-09-09T04:13:02;0.20;;;0.20;;
15490;SDS011;7847;50.930;4.336;2022-09-09T04:15:28;0.20;;;0.20;;
15490;SDS011;7847;50.930;4.336;2022-09-09T04:17:55;0.20;;;0.20;;
15490;SDS011;7847;50.930;4.336;2022-09-09T04:20:21;0.17;;;0.17;;
15490;SDS011;7847;50.930;4.336;2022-09-09T04:22:47;0.20;;;0.20;;
15490;SDS011;7847;50.930;4.336;2022-09-09T04:25:13;0.20;;;0.20;;
15490;SDS011;7847;50.930;4.336;2022-09-09T04:27:39;0.20;;;0.20;;
15490;SDS011;7847;50.930;4.336;2022-09-09T04:30:06;0.20;;;0.20;;
15490;SDS011;7847;50.930;4.336;2022-09-09T04:32:33;0.20;;;0.20;;
15490;SDS011;7847;50.930;4.336;2022-09-09T04:34:59;0.20;;;0.20;;
15490;SDS011;7847;50.930;4.336;2022-09-09T04:37:25;0.20;;;0.20;;
15490;SDS011;7847;50.930;4.336;2022-09-09T04:39:51;0.20;;;0.20;;
15490;SDS011;7847;50.930;4.336;2022-09-09T04:42:17;0.20;;;0.20;;
15490;SDS011;7847;50.930;4.336;2022-09-09T04:44:44;0.20;;;0.20;;
15490;SDS011;7847;50.930;4.336;2022-09-09T04:47:10;0.20;;;0.20;;
15490;SDS011;7847;50.930;4.336;2022-09-09T04:49:36;0.20;;;0.20;;
15490;SDS011;7847;50.930;4.336;2022-09-09T04:52:03;0.20;;;0.20;;
15490;SDS011;7847;50.930;4.336;2022-09-09T04:54:29;0.20;;;0.20;;
15490;SDS011;7847;50.930;4.336;2022-09-09T04:56:55;0.20;;;0.20;;
15490;SDS011;7847;50.930;4.336;2022-09-09T04:59:21;0.20;;;0.20;;
15490;SDS011;7847;50.930;4.336;2022-09-09T05:01:48;0.20;;;0.20;;
15490;SDS011;7847;50.930;4.336;2022-09-09T05:04:15;0.20;;;0.20;;
15490;SDS011;7847;50.930;4.336;2022-09-09T05:06:41;0.30;;;0.30;;
15490;SDS011;7847;50.930;4.336;2022-09-09T05:09:07;0.20;;;0.20;;
15490;SDS011;7847;50.930;4.336;2022-09-09T05:11:33;0.20;;;0.20;;
15490;SDS011;7847;50.930;4.336;2022-09-09T05:14:03;0.20;;;0.20;;
15490;SDS011;7847;50.930;4.336;2022-09-09T05:16:29;0.20;;;0.20;;
15490;SDS011;7847;50.930;4.336;2022-09-09T05:18:55;0.20;;;0.20;;
15490;SDS011;7847;50.930;4.336;2022-09-09T05:21:22;0.20;;;0.20;;
15490;SDS011;7847;50.930;4.336;2022-09-09T05:23:51;0.20;;;0.20;;
15490;SDS011;7847;50.930;4.336;2022-09-09T05:26:19;0.20;;;0.20;;
15490;SDS011;7847;50.930;4.336;2022-09-09T05:28:46;0.20;;;0.20;;
15490;SDS011;7847;50.930;4.336;2022-09-09T05:31:13;0.20;;;0.20;;
15490;SDS011;7847;50.930;4.336;2022-09-09T05:33:40;0.20;;;0.20;;
15490;SDS011;7847;50.930;4.336;2022-09-09T05:36:08;0.20;;;0.20;;
15490;SDS011;7847;50.930;4.336;2022-09-09T05:38:35;0.20;;;0.20;;
15490;SDS011;7847;50.930;4.336;2022-09-09T05:41:02;0.20;;;0.20;;
15490;SDS011;7847;50.930;4.336;2022-09-09T05:43:29;0.20;;;0.20;;
15490;SDS011;7847;50.930;4.336;2022-09-09T05:46:00;0.20;;;0.20;;
15490;SDS011;7847;50.930;4.336;2022-09-09T05:48:51;0.20;;;0.20;;
15490;SDS011;7847;50.930;4.336;2022-09-09T05:51:23;0.20;;;0.20;;
15490;SDS011;7847;50.930;4.336;2022-09-09T05:53:49;0.20;;;0.20;;
15490;SDS011;7847;50.930;4.336;2022-09-09T05:56:17;0.20;;;0.20;;
15490;SDS011;7847;50.930;4.336;2022-09-09T05:58:43;0.20;;;0.20;;
15490;SDS011;7847;50.930;4.336;2022-09-09T06:01:13;0.20;;;0.20;;
15490;SDS011;7847;50.930;4.336;2022-09-09T06:03:40;0.20;;;0.20;;
15490;SDS011;7847;50.930;4.336;2022-09-09T06:06:07;0.10;;;0.10;;
15490;SDS011;7847;50.930;4.336;2022-09-09T06:08:40;0.20;;;0.20;;
15490;SDS011;7847;50.930;4.336;2022-09-09T06:11:12;0.20;;;0.20;;
15490;SDS011;7847;50.930;4.336;2022-09-09T06:13:39;0.20;;;0.20;;
15490;SDS011;7847;50.930;4.336;2022-09-09T06:16:15;0.20;;;0.20;;
15490;SDS011;7847;50.930;4.336;2022-09-09T06:18:42;0.20;;;0.20;;
15490;SDS011;7847;50.930;4.336;2022-09-09T06:21:11;0.20;;;0.20;;
15490;SDS011;7847;50.930;4.336;2022-09-09T06:23:39;0.20;;;0.20;;
15490;SDS011;7847;50.930;4.336;2022-09-09T06:26:16;0.25;;;0.25;;
15490;SDS011;7847;50.930;4.336;2022-09-09T06:28:43;0.20;;;0.20;;
15490;SDS011;7847;50.930;4.336;2022-09-09T06:31:11;0.20;;;0.20;;
15490;SDS011;7847;50.930;4.336;2022-09-09T06:33:38;0.20;;;0.20;;
15490;SDS011;7847;50.930;4.336;2022-09-09T06:36:06;0.20;;;0.20;;
15490;SDS011;7847;50.930;4.336;2022-09-09T06:38:32;0.20;;;0.20;;
15490;SDS011;7847;50.930;4.336;2022-09-09T06:40:59;0.20;;;0.20;;
15490;SDS011;7847;50.930;4.336;2022-09-09T06:43:26;0.20;;;0.20;;
15490;SDS011;7847;50.930;4.336;2022-09-09T06:45:56;0.13;;;0.13;;
15490;SDS011;7847;50.930;4.336;2022-09-09T06:48:22;0.20;;;0.20;;
15490;SDS011;7847;50.930;4.336;2022-09-09T06:50:48;0.20;;;0.20;;
15490;SDS011;7847;50.930;4.336;2022-09-09T06:53:18;0.20;;;0.20;;
15490;SDS011;7847;50.930;4.336;2022-09-09T06:55:44;0.20;;;0.20;;
15490;SDS011;7847;50.930;4.336;2022-09-09T06:58:10;0.20;;;0.20;;
15490;SDS011;7847;50.930;4.336;2022-09-09T07:00:36;0.20;;;0.20;;
15490;SDS011;7847;50.930;4.336;2022-09-09T07:03:03;0.20;;;0.20;;
15490;SDS011;7847;50.930;4.336;2022-09-09T07:05:31;0.20;;;0.20;;
15490;SDS011;7847;50.930;4.336;2022-09-09T07:07:57;0.20;;;0.20;;
15490;SDS011;7847;50.930;4.336;2022-09-09T07:10:23;0.20;;;0.20;;
15490;SDS011;7847;50.930;4.336;2022-09-09T07:12:50;0.20;;;0.20;;
15490;SDS011;7847;50.930;4.336;2022-09-09T07:15:17;0.20;;;0.20;;
15490;SDS011;7847;50.930;4.336;2022-09-09T07:17:43;0.25;;;0.25;;
15490;SDS011;7847;50.930;4.336;2022-09-09T07:20:10;0.20;;;0.20;;
15490;SDS011;7847;50.930;4.336;2022-09-09T07:22:37;0.20;;;0.20;;
15490;SDS011;7847;50.930;4.336;2022-09-09T07:25:03;0.10;;;0.10;;
15490;SDS011;7847;50.930;4.336;2022-09-09T07:27:30;0.20;;;0.20;;
15490;SDS011;7847;50.930;4.336;2022-09-09T07:29:56;0.30;;;0.30;;
15490;SDS011;7847;50.930;4.336;2022-09-09T07:32:22;0.20;;;0.20;;
15490;SDS011;7847;50.930;4.336;2022-09-09T07:34:50;0.20;;;0.20;;
15490;SDS011;7847;50.930;4.336;2022-09-09T07:37:16;0.20;;;0.20;;
15490;SDS011;7847;50.930;4.336;2022-09-09T07:39:43;0.10;;;0.10;;
15490;SDS011;7847;50.930;4.336;2022-09-09T07:42:09;0.20;;;0.20;;
15490;SDS011;7847;50.930;4.336;2022-09-09T07:44:36;0.20;;;0.20;;
15490;SDS011;7847;50.930;4.336;2022-09-09T07:47:05;0.20;;;0.20;;
15490;SDS011;7847;50.930;4.336;2022-09-09T07:49:31;0.20;;;0.20;;
15490;SDS011;7847;50.930;4.336;2022-09-09T07:51:57;0.10;;;0.10;;
15490;SDS011;7847;50.930;4.336;2022-09-09T07:54:25;0.20;;;0.20;;
15490;SDS011;7847;50.930;4.336;2022-09-09T07:56:51;0.20;;;0.20;;
15490;SDS011;7847;50.930;4.336;2022-09-09T07:59:17;0.20;;;0.20;;
15490;SDS011;7847;50.930;4.336;2022-09-09T08:01:44;0.20;;;0.20;;
15490;SDS011;7847;50.930;4.336;2022-09-09T08:04:15;0.20;;;0.20;;
15490;SDS011;7847;50.930;4.336;2022-09-09T08:06:44;0.20;;;0.20;;
15490;SDS011;7847;50.930;4.336;2022-09-09T08:09:11;0.20;;;0.20;;
15490;SDS011;7847;50.930;4.336;2022-09-09T08:11:37;0.10;;;0.10;;
15490;SDS011;7847;50.930;4.336;2022-09-09T08:14:03;0.20;;;0.20;;
15490;SDS011;7847;50.930;4.336;2022-09-09T08:16:31;0.20;;;0.20;;
15490;SDS011;7847;50.930;4.336;2022-09-09T08:18:58;0.20;;;0.20;;
15490;SDS011;7847;50.930;4.336;2022-09-09T08:21:25;0.20;;;0.20;;
15490;SDS011;7847;50.930;4.336;2022-09-09T08:23:53;0.20;;;0.20;;
15490;SDS011;7847;50.930;4.336;2022-09-09T08:26:29;0.20;;;0.20;;
15490;SDS011;7847;50.930;4.336;2022-09-09T08:28:56;0.20;;;0.20;;
15490;SDS011;7847;50.930;4.336;2022-09-09T08:31:24;0.20;;;0.20;;
15490;SDS011;7847;50.930;4.336;2022-09-09T08:33:50;0.20;;;0.20;;
15490;SDS011;7847;50.930;4.336;2022-09-09T08:36:17;0.20;;;0.20;;
15490;SDS011;7847;50.930;4.336;2022-09-09T08:38:43;0.20;;;0.20;;
15490;SDS011;7847;50.930;4.336;2022-09-09T08:46:44;0.10;;;0.10;;
15490;SDS011;7847;50.930;4.336;2022-09-09T08:51:38;0.20;;;0.20;;
15490;SDS011;7847;50.930;4.336;2022-09-09T08:54:05;0.20;;;0.20;;
15490;SDS011;7847;50.930;4.336;2022-09-09T08:56:31;0.20;;;0.20;;
15490;SDS011;7847;50.930;4.336;2022-09-09T08:58:59;0.20;;;0.20;;
15490;SDS011;7847;50.930;4.336;2022-09-09T09:01:36;0.20;;;0.20;;
15490;SDS011;7847;50.930;4.336;2022-09-09T09:09:30;0.20;;;0.20;;
15490;SDS011;7847;50.930;4.336;2022-09-09T09:11:53;0.20;;;0.20;;
15490;SDS011;7847;50.930;4.336;2022-09-09T09:14:21;0.20;;;0.20;;
15490;SDS011;7847;50.930;4.336;2022-09-09T09:19:19;0.20;;;0.20;;
15490;SDS011;7847;50.930;4.336;2022-09-09T09:22:35;0.20;;;0.20;;
15490;SDS011;7847;50.930;4.336;2022-09-09T09:27:43;0.10;;;0.10;;
15490;SDS011;7847;50.930;4.336;2022-09-09T09:30:06;0.20;;;0.20;;
15490;SDS011;7847;50.930;4.336;2022-09-09T09:32:38;0.20;;;0.20;;
15490;SDS011;7847;50.930;4.336;2022-09-09T09:35:06;0.20;;;0.20;;
15490;SDS011;7847;50.930;4.336;2022-09-09T09:37:35;0.20;;;0.20;;
15490;SDS011;7847;50.930;4.336;2022-09-09T09:40:11;0.20;;;0.20;;
15490;SDS011;7847;50.930;4.336;2022-09-09T09:42:38;0.20;;;0.20;;
15490;SDS011;7847;50.930;4.336;2022-09-09T09:45:16;0.20;;;0.20;;
15490;SDS011;7847;50.930;4.336;2022-09-09T09:47:46;0.20;;;0.20;;
15490;SDS011;7847;50.930;4.336;2022-09-09T09:50:23;0.20;;;0.20;;
15490;SDS011;7847;50.930;4.336;2022-09-09T09:55:44;0.20;;;0.20;;
15490;SDS011;7847;50.930;4.336;2022-09-09T09:58:14;0.20;;;0.20;;
15490;SDS011;7847;50.930;4.336;2022-09-09T10:00:50;0.10;;;0.10;;
15490;SDS011;7847;50.930;4.336;2022-09-09T10:03:21;0.20;;;0.20;;
15490;SDS011;7847;50.930;4.336;2022-09-09T10:05:48;0.20;;;0.20;;
15490;SDS011;7847;50.930;4.336;2022-09-09T10:08:15;0.20;;;0.20;;
15490;SDS011;7847;50.930;4.336;2022-09-09T10:13:14;0.20;;;0.20;;
15490;SDS011;7847;50.930;4.336;2022-09-09T10:15:45;0.20;;;0.20;;
15490;SDS011;7847;50.930;4.336;2022-09-09T10:20:59;0.17;;;0.17;;
15490;SDS011;7847;50.930;4.336;2022-09-09T10:23:51;0.20;;;0.20;;
15490;SDS011;7847;50.930;4.336;2022-09-09T10:37:00;0.20;;;0.20;;
15490;SDS011;7847;50.930;4.336;2022-09-09T10:39:33;0.10;;;0.10;;
15490;SDS011;7847;50.930;4.336;2022-09-09T10:42:13;0.20;;;0.20;;
15490;SDS011;7847;50.930;4.336;2022-09-09T10:47:38;0.10;;;0.10;;
15490;SDS011;7847;50.930;4.336;2022-09-09T10:55:26;0.20;;;0.20;;
15490;SDS011;7847;50.930;4.336;2022-09-09T10:57:53;0.10;;;0.10;;
15490;SDS011;7847;50.930;4.336;2022-09-09T11:00:36;0.10;;;0.10;;
15490;SDS011;7847;50.930;4.336;2022-09-09T11:03:04;0.10;;;0.10;;
15490;SDS011;7847;50.930;4.336;2022-09-09T11:05:41;0.10;;;0.10;;
15490;SDS011;7847;50.930;4.336;2022-09-09T11:08:20;0.10;;;0.10;;
15490;SDS011;7847;50.930;4.336;2022-09-09T11:13:22;0.20;;;0.20;;
15490;SDS011;7847;50.930;4.336;2022-09-09T11:18:36;0.20;;;0.20;;
15490;SDS011;7847;50.930;4.336;2022-09-09T11:21:04;0.20;;;0.20;;
15490;SDS011;7847;50.930;4.336;2022-09-09T11:23:36;0.10;;;0.10;;
15490;SDS011;7847;50.930;4.336;2022-09-09T11:26:05;0.10;;;0.10;;
15490;SDS011;7847;50.930;4.336;2022-09-09T11:41:37;0.10;;;0.10;;
15490;SDS011;7847;50.930;4.336;2022-09-09T11:44:17;0.10;;;0.10;;
15490;SDS011;7847;50.930;4.336;2022-09-09T11:46:44;0.10;;;0.10;;
15490;SDS011;7847;50.930;4.336;2022-09-09T11:49:27;0.10;;;0.10;;
15490;SDS011;7847;50.930;4.336;2022-09-09T11:51:53;0.10;;;0.10;;
15490;SDS011;7847;50.930;4.336;2022-09-09T11:56:54;0.10;;;0.10;;
15490;SDS011;7847;50.930;4.336;2022-09-09T12:02:30;0.10;;;0.10;;
15490;SDS011;7847;50.930;4.336;2022-09-09T12:04:37;0.10;;;0.10;;
15490;SDS011;7847;50.930;4.336;2022-09-09T12:09:46;0.20;;;0.20;;
15490;SDS011;7847;50.930;4.336;2022-09-09T12:17:25;0.20;;;0.20;;
15490;SDS011;7847;50.930;4.336;2022-09-09T12:20:02;0.10;;;0.10;;
15490;SDS011;7847;50.930;4.336;2022-09-09T12:22:37;0.10;;;0.10;;
15490;SDS011;7847;50.930;4.336;2022-09-09T12:30:35;0.10;;;0.10;;
15490;SDS011;7847;50.930;4.336;2022-09-09T12:33:08;0.10;;;0.10;;
15490;SDS011;7847;50.930;4.336;2022-09-09T12:35:36;0.10;;;0.10;;
15490;SDS011;7847;50.930;4.336;2022-09-09T12:38:03;0.10;;;0.10;;
15490;SDS011;7847;50.930;4.336;2022-09-09T12:40:33;0.10;;;0.10;;
15490;SDS011;7847;50.930;4.336;2022-09-09T12:43:20;0.10;;;0.10;;
15490;SDS011;7847;50.930;4.336;2022-09-09T12:45:46;0.10;;;0.10;;
15490;SDS011;7847;50.930;4.336;2022-09-09T12:48:15;0.10;;;0.10;;
15490;SDS011;7847;50.930;4.336;2022-09-09T12:50:47;0.10;;;0.10;;
15490;SDS011;7847;50.930;4.336;2022-09-09T12:53:27;0.10;;;0.10;;
15490;SDS011;7847;50.930;4.336;2022-09-09T12:55:58;0.10;;;0.10;;
15490;SDS011;7847;50.930;4.336;2022-09-09T12:58:25;0.10;;;0.10;;
15490;SDS011;7847;50.930;4.336;2022-09-09T13:00:54;0.10;;;0.10;;
15490;SDS011;7847;50.930;4.336;2022-09-09T13:03:24;0.10;;;0.10;;
15490;SDS011;7847;50.930;4.336;2022-09-09T13:05:51;0.10;;;0.10;;
15490;SDS011;7847;50.930;4.336;2022-09-09T13:08:18;0.08;;;0.08;;
15490;SDS011;7847;50.930;4.336;2022-09-09T13:10:51;0.10;;;0.10;;
15490;SDS011;7847;50.930;4.336;2022-09-09T13:13:21;0.10;;;0.10;;
15490;SDS011;7847;50.930;4.336;2022-09-09T13:15:51;0.10;;;0.10;;
15490;SDS011;7847;50.930;4.336;2022-09-09T13:18:19;0.10;;;0.10;;
15490;SDS011;7847;50.930;4.336;2022-09-09T13:20:47;0.10;;;0.10;;
15490;SDS011;7847;50.930;4.336;2022-09-09T13:23:13;0.10;;;0.10;;
15490;SDS011;7847;50.930;4.336;2022-09-09T13:25:42;0.10;;;0.10;;
15490;SDS011;7847;50.930;4.336;2022-09-09T13:28:20;0.10;;;0.10;;
15490;SDS011;7847;50.930;4.336;2022-09-09T13:30:54;0.10;;;0.10;;
15490;SDS011;7847;50.930;4.336;2022-09-09T13:33:24;0.10;;;0.10;;
15490;SDS011;7847;50.930;4.336;2022-09-09T13:35:55;0.10;;;0.10;;
15490;SDS011;7847;50.930;4.336;2022-09-09T13:38:22;0.10;;;0.10;;
15490;SDS011;7847;50.930;4.336;2022-09-09T13:41:03;0.10;;;0.10;;
15490;SDS011;7847;50.930;4.336;2022-09-09T13:43:36;0.10;;;0.10;;
15490;SDS011;7847;50.930;4.336;2022-09-09T13:46:04;0.10;;;0.10;;
15490;SDS011;7847;50.930;4.336;2022-09-09T13:48:34;0.10;;;0.10;;
15490;SDS011;7847;50.930;4.336;2022-09-09T13:51:03;0.10;;;0.10;;
15490;SDS011;7847;50.930;4.336;2022-09-09T13:53:30;0.00;;;0.00;;
15490;SDS011;7847;50.930;4.336;2022-09-09T13:55:57;0.10;;;0.10;;
15490;SDS011;7847;50.930;4.336;2022-09-09T13:58:24;0.10;;;0.10;;
15490;SDS011;7847;50.930;4.336;2022-09-09T14:00:51;0.00;;;0.00;;
15490;SDS011;7847;50.930;4.336;2022-09-09T14:03:17;0.00;;;0.00;;
15490;SDS011;7847;50.930;4.336;2022-09-09T14:05:43;0.10;;;0.10;;
15490;SDS011;7847;50.930;4.336;2022-09-09T14:08:12;0.00;;;0.00;;
15490;SDS011;7847;50.930;4.336;2022-09-09T14:10:40;0.10;;;0.10;;
15490;SDS011;7847;50.930;4.336;2022-09-09T14:13:06;0.10;;;0.10;;
15490;SDS011;7847;50.930;4.336;2022-09-09T14:15:33;0.10;;;0.10;;
15490;SDS011;7847;50.930;4.336;2022-09-09T14:17:59;0.10;;;0.10;;
15490;SDS011;7847;50.930;4.336;2022-09-09T14:20:25;0.10;;;0.10;;
15490;SDS011;7847;50.930;4.336;2022-09-09T14:22:51;0.10;;;0.10;;
15490;SDS011;7847;50.930;4.336;2022-09-09T14:25:18;0.17;;;0.17;;
15490;SDS011;7847;50.930;4.336;2022-09-09T14:27:44;0.10;;;0.10;;
15490;SDS011;7847;50.930;4.336;2022-09-09T14:30:11;0.10;;;0.10;;
15490;SDS011;7847;50.930;4.336;2022-09-09T14:32:37;0.10;;;0.10;;
15490;SDS011;7847;50.930;4.336;2022-09-09T14:35:03;0.00;;;0.00;;
15490;SDS011;7847;50.930;4.336;2022-09-09T14:37:29;0.10;;;0.10;;
15490;SDS011;7847;50.930;4.336;2022-09-09T14:39:56;0.10;;;0.10;;
15490;SDS011;7847;50.930;4.336;2022-09-09T14:42:22;0.10;;;0.10;;
15490;SDS011;7847;50.930;4.336;2022-09-09T14:44:48;0.10;;;0.10;;
15490;SDS011;7847;50.930;4.336;2022-09-09T14:47:14;0.10;;;0.10;;
15490;SDS011;7847;50.930;4.336;2022-09-09T14:49:40;0.10;;;0.10;;
15490;SDS011;7847;50.930;4.336;2022-09-09T14:52:06;0.10;;;0.10;;
15490;SDS011;7847;50.930;4.336;2022-09-09T14:54:34;0.10;;;0.10;;
15490;SDS011;7847;50.930;4.336;2022-09-09T14:57:00;0.10;;;0.10;;
15490;SDS011;7847;50.930;4.336;2022-09-09T14:59:26;0.10;;;0.10;;
15490;SDS011;7847;50.930;4.336;2022-09-09T15:01:52;0.10;;;0.10;;
15490;SDS011;7847;50.930;4.336;2022-09-09T15:04:18;0.10;;;0.10;;
15490;SDS011;7847;50.930;4.336;2022-09-09T15:06:45;0.10;;;0.10;;
15490;SDS011;7847;50.930;4.336;2022-09-09T15:09:13;0.10;;;0.10;;
15490;SDS011;7847;50.930;4.336;2022-09-09T15:11:39;0.10;;;0.10;;
15490;SDS011;7847;50.930;4.336;2022-09-09T15:14:06;0.10;;;0.10;;
15490;SDS011;7847;50.930;4.336;2022-09-09T15:16:33;0.10;;;0.10;;
15490;SDS011;7847;50.930;4.336;2022-09-09T15:19:00;0.00;;;0.00;;
15490;SDS011;7847;50.930;4.336;2022-09-09T15:21:27;0.10;;;0.10;;
15490;SDS011;7847;50.930;4.336;2022-09-09T15:23:54;0.10;;;0.10;;
15490;SDS011;7847;50.930;4.336;2022-09-09T15:26:20;0.10;;;0.10;;
15490;SDS011;7847;50.930;4.336;2022-09-09T15:28:46;0.10;;;0.10;;
15490;SDS011;7847;50.930;4.336;2022-09-09T15:31:17;0.10;;;0.10;;
15490;SDS011;7847;50.930;4.336;2022-09-09T15:33:47;0.10;;;0.10;;
15490;SDS011;7847;50.930;4.336;2022-09-09T15:36:18;0.10;;;0.10;;
15490;SDS011;7847;50.930;4.336;2022-09-09T15:38:44;0.10;;;0.10;;
15490;SDS011;7847;50.930;4.336;2022-09-09T15:41:11;0.10;;;0.10;;
15490;SDS011;7847;50.930;4.336;2022-09-09T15:43:37;0.10;;;0.10;;
15490;SDS011;7847;50.930;4.336;2022-09-09T15:46:09;0.10;;;0.10;;
15490;SDS011;7847;50.930;4.336;2022-09-09T15:48:40;0.10;;;0.10;;
15490;SDS011;7847;50.930;4.336;2022-09-09T15:51:06;0.10;;;0.10;;
15490;SDS011;7847;50.930;4.336;2022-09-09T15:53:34;0.10;;;0.10;;
15490;SDS011;7847;50.930;4.336;2022-09-09T15:56:02;0.10;;;0.10;;
15490;SDS011;7847;50.930;4.336;2022-09-09T15:58:31;0.03;;;0.03;;
15490;SDS011;7847;50.930;4.336;2022-09-09T16:01:04;0.10;;;0.10;;
15490;SDS011;7847;50.930;4.336;2022-09-09T16:03:35;0.10;;;0.10;;
15490;SDS011;7847;50.930;4.336;2022-09-09T16:06:04;0.10;;;0.10;;
15490;SDS011;7847;50.930;4.336;2022-09-09T16:08:34;0.10;;;0.10;;
15490;SDS011;7847;50.930;4.336;2022-09-09T16:11:10;0.13;;;0.13;;
15490;SDS011;7847;50.930;4.336;2022-09-09T16:13:39;0.10;;;0.10;;
15490;SDS011;7847;50.930;4.336;2022-09-09T16:16:05;0.10;;;0.10;;
15490;SDS011;7847;50.930;4.336;2022-09-09T16:21:01;0.10;;;0.10;;
15490;SDS011;7847;50.930;4.336;2022-09-09T16:23:28;0.10;;;0.10;;
15490;SDS011;7847;50.930;4.336;2022-09-09T16:25:54;0.00;;;0.00;;
15490;SDS011;7847;50.930;4.336;2022-09-09T16:28:20;0.10;;;0.10;;
15490;SDS011;7847;50.930;4.336;2022-09-09T16:30:47;0.10;;;0.10;;
15490;SDS011;7847;50.930;4.336;2022-09-09T16:33:13;0.15;;;0.15;;
15490;SDS011;7847;50.930;4.336;2022-09-09T16:35:40;0.00;;;0.00;;
15490;SDS011;7847;50.930;4.336;2022-09-09T16:38:06;0.10;;;0.10;;
15490;SDS011;7847;50.930;4.336;2022-09-09T16:40:35;0.10;;;0.10;;
15490;SDS011;7847;50.930;4.336;2022-09-09T16:43:02;0.10;;;0.10;;
15490;SDS011;7847;50.930;4.336;2022-09-09T16:45:28;0.10;;;0.10;;
15490;SDS011;7847;50.930;4.336;2022-09-09T16:47:55;0.10;;;0.10;;
15490;SDS011;7847;50.930;4.336;2022-09-09T16:50:21;0.10;;;0.10;;
15490;SDS011;7847;50.930;4.336;2022-09-09T16:52:47;0.20;;;0.20;;
15490;SDS011;7847;50.930;4.336;2022-09-09T16:55:13;0.20;;;0.20;;
15490;SDS011;7847;50.930;4.336;2022-09-09T16:57:39;0.10;;;0.10;;
15490;SDS011;7847;50.930;4.336;2022-09-09T17:00:06;0.10;;;0.10;;
15490;SDS011;7847;50.930;4.336;2022-09-09T17:02:33;0.20;;;0.20;;
15490;SDS011;7847;50.930;4.336;2022-09-09T17:04:59;0.10;;;0.10;;
15490;SDS011;7847;50.930;4.336;2022-09-09T17:07:25;0.10;;;0.10;;